LSZR/ACH METAR and TAF weather

Enter ICAO airport designator
Station Type Date Time Source
LSZR METAR 2022/05/26 04:20 UTC NOAA

LSZR 260420Z VRB01KT 9999 BKN075 12/10 Q1023 NOSIG RMK A


Station Type Date Time Source
LSZR Decoded METAR 2022/05/26 04:20 UTC NOAA

Saint Gallen-Altenrhein, Switzerland (LSZR) 47-29-06N 009-33-43E
May 26, 2022 - 12:20 AM EDT / 2022.05.26 0420 UTC
Wind: Variable at 1 MPH (1 KT):0
Visibility: greater than 7 mile(s):0
Sky conditions: mostly cloudy
Temperature: 53 F (12 C)
Dew Point: 50 F (10 C)
Relative Humidity: 87%
Pressure (altimeter): 30.21 in. Hg (1023 hPa)
ob: LSZR 260420Z VRB01KT 9999 BKN075 12/10 Q1023 NOSIG RMK A
cycle: 4

Station Type Date Time Source
LSZR TAF 2014/12/22 20:03 UTC NOAA

TAF
AMD LSZR 222054Z 2220/2224 CNL

Example: see airport list